sensor_id;sensor_type;location;lat;lon;timestamp;P1;durP1;ratioP1;P2;durP2;ratioP2
4051;SDS011;2040;50.924;11.604;2023-07-13T00:01:35;3.17;;;1.30;;
4051;SDS011;2040;50.924;11.604;2023-07-13T00:04:03;4.40;;;1.10;;
4051;SDS011;2040;50.924;11.604;2023-07-13T00:06:29;3.03;;;1.20;;
4051;SDS011;2040;50.924;11.604;2023-07-13T00:08:58;1.70;;;1.00;;
4051;SDS011;2040;50.924;11.604;2023-07-13T00:11:24;2.33;;;1.10;;
4051;SDS011;2040;50.924;11.604;2023-07-13T00:13:50;2.70;;;1.20;;
4051;SDS011;2040;50.924;11.604;2023-07-13T00:16:16;1.53;;;1.27;;
4051;SDS011;2040;50.924;11.604;2023-07-13T00:18:43;1.87;;;1.13;;
4051;SDS011;2040;50.924;11.604;2023-07-13T00:21:09;3.13;;;1.30;;
4051;SDS011;2040;50.924;11.604;2023-07-13T00:23:35;8.90;;;1.30;;
4051;SDS011;2040;50.924;11.604;2023-07-13T00:26:03;2.03;;;1.23;;
4051;SDS011;2040;50.924;11.604;2023-07-13T00:28:29;5.57;;;1.60;;
4051;SDS011;2040;50.924;11.604;2023-07-13T00:30:55;2.43;;;1.40;;
4051;SDS011;2040;50.924;11.604;2023-07-13T00:33:20;3.10;;;1.33;;
4051;SDS011;2040;50.924;11.604;2023-07-13T00:35:47;3.07;;;1.23;;
4051;SDS011;2040;50.924;11.604;2023-07-13T00:38:13;1.13;;;0.90;;
4051;SDS011;2040;50.924;11.604;2023-07-13T00:40:39;3.90;;;1.30;;
4051;SDS011;2040;50.924;11.604;2023-07-13T00:43:09;1.90;;;1.33;;
4051;SDS011;2040;50.924;11.604;2023-07-13T00:48:10;2.70;;;1.27;;
4051;SDS011;2040;50.924;11.604;2023-07-13T00:50:39;7.93;;;1.27;;
4051;SDS011;2040;50.924;11.604;2023-07-13T00:53:06;4.10;;;1.20;;
4051;SDS011;2040;50.924;11.604;2023-07-13T00:55:33;2.50;;;1.30;;
4051;SDS011;2040;50.924;11.604;2023-07-13T00:57:59;5.60;;;1.33;;
4051;SDS011;2040;50.924;11.604;2023-07-13T01:00:27;4.13;;;1.40;;
4051;SDS011;2040;50.924;11.604;2023-07-13T01:02:55;4.43;;;1.10;;
4051;SDS011;2040;50.924;11.604;2023-07-13T01:05:21;2.23;;;1.10;;
4051;SDS011;2040;50.924;11.604;2023-07-13T01:07:48;2.73;;;1.00;;
4051;SDS011;2040;50.924;11.604;2023-07-13T01:10:16;2.30;;;1.00;;
4051;SDS011;2040;50.924;11.604;2023-07-13T01:12:45;3.83;;;1.37;;
4051;SDS011;2040;50.924;11.604;2023-07-13T01:18:02;2.23;;;1.00;;
4051;SDS011;2040;50.924;11.604;2023-07-13T01:20:29;3.63;;;1.33;;
4051;SDS011;2040;50.924;11.604;2023-07-13T01:22:54;5.20;;;1.37;;
4051;SDS011;2040;50.924;11.604;2023-07-13T01:25:20;5.73;;;1.60;;
4051;SDS011;2040;50.924;11.604;2023-07-13T01:27:46;2.93;;;1.17;;
4051;SDS011;2040;50.924;11.604;2023-07-13T01:30:11;6.20;;;1.60;;
4051;SDS011;2040;50.924;11.604;2023-07-13T01:32:37;4.20;;;1.23;;
4051;SDS011;2040;50.924;11.604;2023-07-13T01:35:06;1.83;;;1.23;;
4051;SDS011;2040;50.924;11.604;2023-07-13T01:37:32;4.80;;;1.23;;
4051;SDS011;2040;50.924;11.604;2023-07-13T01:40:01;3.93;;;1.67;;
4051;SDS011;2040;50.924;11.604;2023-07-13T01:42:29;14.90;;;1.30;;
4051;SDS011;2040;50.924;11.604;2023-07-13T01:44:54;7.60;;;1.60;;
4051;SDS011;2040;50.924;11.604;2023-07-13T01:47:20;4.27;;;1.10;;
4051;SDS011;2040;50.924;11.604;2023-07-13T01:49:45;3.23;;;1.17;;
4051;SDS011;2040;50.924;11.604;2023-07-13T01:52:12;4.93;;;0.83;;
4051;SDS011;2040;50.924;11.604;2023-07-13T01:54:37;1.97;;;1.67;;
4051;SDS011;2040;50.924;11.604;2023-07-13T01:57:03;4.27;;;1.13;;
4051;SDS011;2040;50.924;11.604;2023-07-13T01:59:29;1.33;;;1.07;;
4051;SDS011;2040;50.924;11.604;2023-07-13T02:01:54;2.47;;;1.17;;
4051;SDS011;2040;50.924;11.604;2023-07-13T02:04:20;1.17;;;1.07;;
4051;SDS011;2040;50.924;11.604;2023-07-13T02:06:45;2.77;;;1.23;;
4051;SDS011;2040;50.924;11.604;2023-07-13T02:09:11;2.33;;;1.33;;
4051;SDS011;2040;50.924;11.604;2023-07-13T02:11:37;2.97;;;0.90;;
4051;SDS011;2040;50.924;11.604;2023-07-13T02:14:02;1.73;;;1.10;;
4051;SDS011;2040;50.924;11.604;2023-07-13T02:16:29;7.53;;;1.27;;
4051;SDS011;2040;50.924;11.604;2023-07-13T02:18:55;3.53;;;1.13;;
4051;SDS011;2040;50.924;11.604;2023-07-13T02:21:22;1.43;;;1.00;;
4051;SDS011;2040;50.924;11.604;2023-07-13T02:23:48;1.57;;;0.90;;
4051;SDS011;2040;50.924;11.604;2023-07-13T02:26:14;1.13;;;0.90;;
4051;SDS011;2040;50.924;11.604;2023-07-13T02:28:40;2.67;;;1.47;;
4051;SDS011;2040;50.924;11.604;2023-07-13T02:31:06;2.53;;;1.10;;
4051;SDS011;2040;50.924;11.604;2023-07-13T02:33:37;4.73;;;1.23;;
4051;SDS011;2040;50.924;11.604;2023-07-13T02:36:02;2.47;;;1.30;;
4051;SDS011;2040;50.924;11.604;2023-07-13T02:38:30;3.27;;;1.00;;
4051;SDS011;2040;50.924;11.604;2023-07-13T02:40:58;1.60;;;1.00;;
4051;SDS011;2040;50.924;11.604;2023-07-13T02:43:24;1.67;;;1.10;;
4051;SDS011;2040;50.924;11.604;2023-07-13T02:45:50;3.17;;;1.00;;
4051;SDS011;2040;50.924;11.604;2023-07-13T02:48:15;5.10;;;1.13;;
4051;SDS011;2040;50.924;11.604;2023-07-13T02:50:41;6.60;;;1.37;;
4051;SDS011;2040;50.924;11.604;2023-07-13T02:53:07;2.40;;;0.80;;
4051;SDS011;2040;50.924;11.604;2023-07-13T02:55:32;3.33;;;1.20;;
4051;SDS011;2040;50.924;11.604;2023-07-13T02:57:58;2.67;;;1.23;;
4051;SDS011;2040;50.924;11.604;2023-07-13T03:00:23;2.80;;;1.97;;
4051;SDS011;2040;50.924;11.604;2023-07-13T03:02:49;2.17;;;1.27;;
4051;SDS011;2040;50.924;11.604;2023-07-13T03:05:14;1.20;;;1.10;;
4051;SDS011;2040;50.924;11.604;2023-07-13T03:07:41;4.87;;;1.27;;
4051;SDS011;2040;50.924;11.604;2023-07-13T03:10:07;4.20;;;1.40;;
4051;SDS011;2040;50.924;11.604;2023-07-13T03:12:33;3.37;;;1.10;;
4051;SDS011;2040;50.924;11.604;2023-07-13T03:14:58;6.37;;;1.50;;
4051;SDS011;2040;50.924;11.604;2023-07-13T03:17:24;6.97;;;1.40;;
4051;SDS011;2040;50.924;11.604;2023-07-13T03:19:50;1.07;;;1.03;;
4051;SDS011;2040;50.924;11.604;2023-07-13T03:22:16;2.93;;;1.20;;
4051;SDS011;2040;50.924;11.604;2023-07-13T03:24:43;3.50;;;1.27;;
4051;SDS011;2040;50.924;11.604;2023-07-13T03:27:09;2.07;;;1.13;;
4051;SDS011;2040;50.924;11.604;2023-07-13T03:29:34;2.40;;;1.33;;
4051;SDS011;2040;50.924;11.604;2023-07-13T03:32:00;2.77;;;1.37;;
4051;SDS011;2040;50.924;11.604;2023-07-13T03:34:25;1.70;;;1.10;;
4051;SDS011;2040;50.924;11.604;2023-07-13T03:36:53;5.53;;;1.30;;
4051;SDS011;2040;50.924;11.604;2023-07-13T03:39:19;1.93;;;1.30;;
4051;SDS011;2040;50.924;11.604;2023-07-13T03:41:45;4.13;;;1.20;;
4051;SDS011;2040;50.924;11.604;2023-07-13T03:44:11;2.13;;;1.30;;
4051;SDS011;2040;50.924;11.604;2023-07-13T03:46:36;2.60;;;1.20;;
4051;SDS011;2040;50.924;11.604;2023-07-13T03:49:03;4.10;;;1.87;;
4051;SDS011;2040;50.924;11.604;2023-07-13T03:51:30;3.77;;;1.40;;
4051;SDS011;2040;50.924;11.604;2023-07-13T03:53:55;3.07;;;1.30;;
4051;SDS011;2040;50.924;11.604;2023-07-13T03:56:22;3.80;;;1.33;;
4051;SDS011;2040;50.924;11.604;2023-07-13T03:58:48;4.37;;;1.43;;
4051;SDS011;2040;50.924;11.604;2023-07-13T04:01:15;6.07;;;1.43;;
4051;SDS011;2040;50.924;11.604;2023-07-13T04:03:42;4.17;;;1.30;;
4051;SDS011;2040;50.924;11.604;2023-07-13T04:06:12;4.00;;;1.20;;
4051;SDS011;2040;50.924;11.604;2023-07-13T04:08:47;7.90;;;1.23;;
4051;SDS011;2040;50.924;11.604;2023-07-13T04:11:15;2.03;;;1.23;;
4051;SDS011;2040;50.924;11.604;2023-07-13T04:13:40;4.00;;;1.40;;
4051;SDS011;2040;50.924;11.604;2023-07-13T04:16:06;6.80;;;1.40;;
4051;SDS011;2040;50.924;11.604;2023-07-13T04:18:31;1.73;;;1.30;;
4051;SDS011;2040;50.924;11.604;2023-07-13T04:20:57;4.10;;;1.30;;
4051;SDS011;2040;50.924;11.604;2023-07-13T04:23:23;4.70;;;1.50;;
4051;SDS011;2040;50.924;11.604;2023-07-13T04:25:49;1.90;;;1.53;;
4051;SDS011;2040;50.924;11.604;2023-07-13T04:28:17;2.50;;;1.40;;
4051;SDS011;2040;50.924;11.604;2023-07-13T04:30:44;3.17;;;1.70;;
4051;SDS011;2040;50.924;11.604;2023-07-13T04:33:10;5.17;;;1.33;;
4051;SDS011;2040;50.924;11.604;2023-07-13T04:35:36;1.80;;;1.23;;
4051;SDS011;2040;50.924;11.604;2023-07-13T04:38:02;3.23;;;1.53;;
4051;SDS011;2040;50.924;11.604;2023-07-13T04:40:28;4.20;;;1.93;;
4051;SDS011;2040;50.924;11.604;2023-07-13T04:42:54;2.83;;;1.30;;
4051;SDS011;2040;50.924;11.604;2023-07-13T04:45:19;6.50;;;1.67;;
4051;SDS011;2040;50.924;11.604;2023-07-13T04:47:45;5.13;;;1.20;;
4051;SDS011;2040;50.924;11.604;2023-07-13T04:50:12;2.40;;;1.60;;
4051;SDS011;2040;50.924;11.604;2023-07-13T04:52:40;4.03;;;1.50;;
4051;SDS011;2040;50.924;11.604;2023-07-13T04:55:07;2.50;;;1.90;;
4051;SDS011;2040;50.924;11.604;2023-07-13T04:57:32;5.03;;;1.50;;
4051;SDS011;2040;50.924;11.604;2023-07-13T04:59:58;4.63;;;1.63;;
4051;SDS011;2040;50.924;11.604;2023-07-13T05:02:26;2.20;;;1.60;;
4051;SDS011;2040;50.924;11.604;2023-07-13T05:04:53;4.23;;;1.40;;
4051;SDS011;2040;50.924;11.604;2023-07-13T05:07:18;2.53;;;1.40;;
4051;SDS011;2040;50.924;11.604;2023-07-13T05:09:44;3.37;;;1.80;;
4051;SDS011;2040;50.924;11.604;2023-07-13T05:12:10;3.17;;;1.33;;
4051;SDS011;2040;50.924;11.604;2023-07-13T05:14:35;6.73;;;1.90;;
4051;SDS011;2040;50.924;11.604;2023-07-13T05:17:01;5.37;;;1.57;;
4051;SDS011;2040;50.924;11.604;2023-07-13T05:19:27;9.87;;;1.70;;
4051;SDS011;2040;50.924;11.604;2023-07-13T05:21:52;4.40;;;1.70;;
4051;SDS011;2040;50.924;11.604;2023-07-13T05:24:18;2.40;;;1.33;;
4051;SDS011;2040;50.924;11.604;2023-07-13T05:26:43;4.70;;;1.30;;
4051;SDS011;2040;50.924;11.604;2023-07-13T05:29:09;2.23;;;1.23;;
4051;SDS011;2040;50.924;11.604;2023-07-13T05:31:34;3.60;;;1.40;;
4051;SDS011;2040;50.924;11.604;2023-07-13T05:34:00;1.90;;;1.50;;
4051;SDS011;2040;50.924;11.604;2023-07-13T05:36:26;4.40;;;1.50;;
4051;SDS011;2040;50.924;11.604;2023-07-13T05:38:51;9.53;;;1.50;;
4051;SDS011;2040;50.924;11.604;2023-07-13T05:41:17;3.43;;;1.40;;
4051;SDS011;2040;50.924;11.604;2023-07-13T05:43:43;6.43;;;1.87;;
4051;SDS011;2040;50.924;11.604;2023-07-13T05:46:08;3.53;;;1.67;;
4051;SDS011;2040;50.924;11.604;2023-07-13T05:48:34;3.33;;;1.60;;
4051;SDS011;2040;50.924;11.604;2023-07-13T05:51:00;6.87;;;1.60;;
4051;SDS011;2040;50.924;11.604;2023-07-13T05:53:26;2.33;;;1.47;;
4051;SDS011;2040;50.924;11.604;2023-07-13T05:55:53;8.30;;;1.77;;
4051;SDS011;2040;50.924;11.604;2023-07-13T05:58:20;9.50;;;2.03;;
4051;SDS011;2040;50.924;11.604;2023-07-13T06:00:46;3.80;;;1.67;;
4051;SDS011;2040;50.924;11.604;2023-07-13T06:03:13;4.17;;;1.93;;
4051;SDS011;2040;50.924;11.604;2023-07-13T06:05:38;4.57;;;2.23;;
4051;SDS011;2040;50.924;11.604;2023-07-13T06:08:05;2.40;;;1.57;;
4051;SDS011;2040;50.924;11.604;2023-07-13T06:10:35;3.70;;;1.83;;
4051;SDS011;2040;50.924;11.604;2023-07-13T06:13:01;6.70;;;1.70;;
4051;SDS011;2040;50.924;11.604;2023-07-13T06:15:26;3.67;;;1.50;;
4051;SDS011;2040;50.924;11.604;2023-07-13T06:17:52;4.30;;;1.67;;
4051;SDS011;2040;50.924;11.604;2023-07-13T06:20:18;2.80;;;1.63;;
4051;SDS011;2040;50.924;11.604;2023-07-13T06:22:43;2.57;;;1.90;;
4051;SDS011;2040;50.924;11.604;2023-07-13T06:25:09;6.63;;;2.57;;
4051;SDS011;2040;50.924;11.604;2023-07-13T06:27:34;1.90;;;1.70;;
4051;SDS011;2040;50.924;11.604;2023-07-13T06:30:00;9.10;;;2.10;;
4051;SDS011;2040;50.924;11.604;2023-07-13T06:32:26;6.00;;;2.43;;
4051;SDS011;2040;50.924;11.604;2023-07-13T06:34:51;3.70;;;1.80;;
4051;SDS011;2040;50.924;11.604;2023-07-13T06:37:17;4.33;;;1.87;;
4051;SDS011;2040;50.924;11.604;2023-07-13T06:39:43;3.47;;;1.67;;
4051;SDS011;2040;50.924;11.604;2023-07-13T06:42:09;4.07;;;1.67;;
4051;SDS011;2040;50.924;11.604;2023-07-13T06:44:34;5.30;;;2.17;;
4051;SDS011;2040;50.924;11.604;2023-07-13T06:47:00;2.20;;;1.97;;
4051;SDS011;2040;50.924;11.604;2023-07-13T06:49:26;6.73;;;2.40;;
4051;SDS011;2040;50.924;11.604;2023-07-13T06:51:51;3.33;;;1.93;;
4051;SDS011;2040;50.924;11.604;2023-07-13T06:54:17;2.80;;;1.50;;
4051;SDS011;2040;50.924;11.604;2023-07-13T06:56:42;3.90;;;2.17;;
4051;SDS011;2040;50.924;11.604;2023-07-13T06:59:08;5.83;;;1.80;;
4051;SDS011;2040;50.924;11.604;2023-07-13T07:01:34;5.27;;;2.10;;
4051;SDS011;2040;50.924;11.604;2023-07-13T07:03:59;5.20;;;1.73;;
4051;SDS011;2040;50.924;11.604;2023-07-13T07:06:25;2.53;;;1.60;;
4051;SDS011;2040;50.924;11.604;2023-07-13T07:08:51;3.30;;;1.43;;
4051;SDS011;2040;50.924;11.604;2023-07-13T07:11:26;3.07;;;1.40;;
4051;SDS011;2040;50.924;11.604;2023-07-13T07:13:52;2.60;;;1.60;;
4051;SDS011;2040;50.924;11.604;2023-07-13T07:16:19;13.13;;;2.40;;
4051;SDS011;2040;50.924;11.604;2023-07-13T07:18:45;3.40;;;1.70;;
4051;SDS011;2040;50.924;11.604;2023-07-13T07:21:11;1.90;;;1.40;;
4051;SDS011;2040;50.924;11.604;2023-07-13T07:23:38;4.73;;;1.50;;
4051;SDS011;2040;50.924;11.604;2023-07-13T07:26:04;4.50;;;1.47;;
4051;SDS011;2040;50.924;11.604;2023-07-13T07:28:30;4.17;;;1.30;;
4051;SDS011;2040;50.924;11.604;2023-07-13T07:30:56;4.70;;;1.53;;
4051;SDS011;2040;50.924;11.604;2023-07-13T07:33:23;7.60;;;1.63;;
4051;SDS011;2040;50.924;11.604;2023-07-13T07:35:49;5.80;;;1.50;;
4051;SDS011;2040;50.924;11.604;2023-07-13T07:38:15;3.30;;;1.60;;
4051;SDS011;2040;50.924;11.604;2023-07-13T07:40:41;3.57;;;1.67;;
4051;SDS011;2040;50.924;11.604;2023-07-13T07:43:07;4.07;;;1.50;;
4051;SDS011;2040;50.924;11.604;2023-07-13T07:45:34;2.13;;;1.60;;
4051;SDS011;2040;50.924;11.604;2023-07-13T07:48:00;6.23;;;1.77;;
4051;SDS011;2040;50.924;11.604;2023-07-13T07:50:26;3.83;;;1.50;;
4051;SDS011;2040;50.924;11.604;2023-07-13T07:52:52;6.33;;;1.83;;
4051;SDS011;2040;50.924;11.604;2023-07-13T07:55:18;2.73;;;1.30;;
4051;SDS011;2040;50.924;11.604;2023-07-13T07:57:44;4.00;;;1.87;;
4051;SDS011;2040;50.924;11.604;2023-07-13T08:00:10;8.27;;;1.90;;
4051;SDS011;2040;50.924;11.604;2023-07-13T08:02:36;5.50;;;1.40;;
4051;SDS011;2040;50.924;11.604;2023-07-13T08:05:01;2.53;;;1.80;;
4051;SDS011;2040;50.924;11.604;2023-07-13T08:07:29;9.37;;;2.10;;
4051;SDS011;2040;50.924;11.604;2023-07-13T08:09:56;3.37;;;1.73;;
4051;SDS011;2040;50.924;11.604;2023-07-13T08:12:22;2.80;;;1.47;;
4051;SDS011;2040;50.924;11.604;2023-07-13T08:14:49;6.63;;;1.93;;
4051;SDS011;2040;50.924;11.604;2023-07-13T08:17:18;3.30;;;1.63;;
4051;SDS011;2040;50.924;11.604;2023-07-13T08:19:48;2.87;;;1.40;;
4051;SDS011;2040;50.924;11.604;2023-07-13T08:22:13;2.00;;;1.43;;
4051;SDS011;2040;50.924;11.604;2023-07-13T08:24:39;3.70;;;2.20;;
4051;SDS011;2040;50.924;11.604;2023-07-13T08:27:04;5.20;;;1.80;;
4051;SDS011;2040;50.924;11.604;2023-07-13T08:29:30;9.40;;;2.17;;
4051;SDS011;2040;50.924;11.604;2023-07-13T08:31:58;3.00;;;1.20;;
4051;SDS011;2040;50.924;11.604;2023-07-13T08:34:24;2.20;;;1.77;;
4051;SDS011;2040;50.924;11.604;2023-07-13T08:36:50;5.07;;;1.73;;
4051;SDS011;2040;50.924;11.604;2023-07-13T08:39:15;5.90;;;1.80;;
4051;SDS011;2040;50.924;11.604;2023-07-13T08:41:41;2.67;;;1.40;;
4051;SDS011;2040;50.924;11.604;2023-07-13T08:44:11;17.33;;;1.63;;
4051;SDS011;2040;50.924;11.604;2023-07-13T08:47:03;5.07;;;1.27;;
4051;SDS011;2040;50.924;11.604;2023-07-13T08:49:30;3.13;;;1.90;;
4051;SDS011;2040;50.924;11.604;2023-07-13T08:52:01;4.03;;;1.70;;
4051;SDS011;2040;50.924;11.604;2023-07-13T08:54:38;2.10;;;1.10;;
4051;SDS011;2040;50.924;11.604;2023-07-13T08:57:12;1.80;;;1.50;;
4051;SDS011;2040;50.924;11.604;2023-07-13T08:59:39;8.47;;;2.00;;
4051;SDS011;2040;50.924;11.604;2023-07-13T09:04:53;5.67;;;1.50;;
4051;SDS011;2040;50.924;11.604;2023-07-13T09:10:28;6.17;;;1.57;;
4051;SDS011;2040;50.924;11.604;2023-07-13T09:15:46;2.87;;;1.40;;
4051;SDS011;2040;50.924;11.604;2023-07-13T09:23:30;2.10;;;1.33;;
4051;SDS011;2040;50.924;11.604;2023-07-13T09:26:02;4.10;;;1.17;;
4051;SDS011;2040;50.924;11.604;2023-07-13T09:28:42;3.67;;;1.43;;
4051;SDS011;2040;50.924;11.604;2023-07-13T09:31:11;5.50;;;1.40;;
4051;SDS011;2040;50.924;11.604;2023-07-13T09:33:41;4.27;;;1.30;;
4051;SDS011;2040;50.924;11.604;2023-07-13T09:38:46;1.13;;;1.03;;
4051;SDS011;2040;50.924;11.604;2023-07-13T09:41:18;2.57;;;1.07;;
4051;SDS011;2040;50.924;11.604;2023-07-13T09:44:15;4.07;;;1.30;;
4051;SDS011;2040;50.924;11.604;2023-07-13T09:46:52;6.10;;;1.07;;
4051;SDS011;2040;50.924;11.604;2023-07-13T09:49:22;3.07;;;1.07;;
4051;SDS011;2040;50.924;11.604;2023-07-13T09:52:00;2.70;;;1.03;;
4051;SDS011;2040;50.924;11.604;2023-07-13T09:54:32;5.07;;;1.23;;
4051;SDS011;2040;50.924;11.604;2023-07-13T09:57:00;7.57;;;1.57;;
4051;SDS011;2040;50.924;11.604;2023-07-13T09:59:29;1.83;;;0.80;;
4051;SDS011;2040;50.924;11.604;2023-07-13T10:01:57;0.80;;;0.70;;
4051;SDS011;2040;50.924;11.604;2023-07-13T10:04:41;1.50;;;1.00;;
4051;SDS011;2040;50.924;11.604;2023-07-13T10:07:08;1.80;;;0.73;;
4051;SDS011;2040;50.924;11.604;2023-07-13T10:09:38;4.50;;;0.90;;
4051;SDS011;2040;50.924;11.604;2023-07-13T10:12:04;0.70;;;0.67;;
4051;SDS011;2040;50.924;11.604;2023-07-13T10:14:38;2.53;;;1.00;;
4051;SDS011;2040;50.924;11.604;2023-07-13T10:17:08;2.20;;;0.70;;
4051;SDS011;2040;50.924;11.604;2023-07-13T10:19:39;1.03;;;0.70;;
4051;SDS011;2040;50.924;11.604;2023-07-13T10:22:31;1.40;;;0.93;;
4051;SDS011;2040;50.924;11.604;2023-07-13T10:25:18;1.10;;;0.70;;
4051;SDS011;2040;50.924;11.604;2023-07-13T10:27:45;1.00;;;0.90;;
4051;SDS011;2040;50.924;11.604;2023-07-13T10:30:19;2.30;;;0.80;;
4051;SDS011;2040;50.924;11.604;2023-07-13T10:32:48;0.87;;;0.80;;
4051;SDS011;2040;50.924;11.604;2023-07-13T10:35:16;5.30;;;0.80;;
4051;SDS011;2040;50.924;11.604;2023-07-13T10:40:34;1.30;;;1.10;;
4051;SDS011;2040;50.924;11.604;2023-07-13T10:43:04;1.23;;;0.93;;
4051;SDS011;2040;50.924;11.604;2023-07-13T10:45:36;0.87;;;0.80;;
4051;SDS011;2040;50.924;11.604;2023-07-13T10:48:02;0.97;;;0.87;;
4051;SDS011;2040;50.924;11.604;2023-07-13T10:50:30;5.70;;;0.80;;
4051;SDS011;2040;50.924;11.604;2023-07-13T10:53:03;1.70;;;0.80;;
4051;SDS011;2040;50.924;11.604;2023-07-13T10:58:18;0.60;;;0.60;;
4051;SDS011;2040;50.924;11.604;2023-07-13T11:00:49;1.03;;;0.70;;
4051;SDS011;2040;50.924;11.604;2023-07-13T11:03:20;4.13;;;0.90;;
4051;SDS011;2040;50.924;11.604;2023-07-13T11:05:48;7.33;;;0.90;;
4051;SDS011;2040;50.924;11.604;2023-07-13T11:08:20;0.70;;;0.60;;
4051;SDS011;2040;50.924;11.604;2023-07-13T11:10:58;10.50;;;1.10;;
4051;SDS011;2040;50.924;11.604;2023-07-13T11:16:58;1.00;;;0.83;;
4051;SDS011;2040;50.924;11.604;2023-07-13T11:21:27;8.07;;;1.03;;
4051;SDS011;2040;50.924;11.604;2023-07-13T11:24:02;5.67;;;0.93;;
4051;SDS011;2040;50.924;11.604;2023-07-13T11:29:08;21.47;;;1.10;;
4051;SDS011;2040;50.924;11.604;2023-07-13T11:31:54;4.27;;;0.93;;
4051;SDS011;2040;50.924;11.604;2023-07-13T11:34:27;1.67;;;0.90;;
4051;SDS011;2040;50.924;11.604;2023-07-13T11:37:01;2.83;;;1.10;;
4051;SDS011;2040;50.924;11.604;2023-07-13T11:39:37;3.20;;;0.80;;
4051;SDS011;2040;50.924;11.604;2023-07-13T11:42:08;10.00;;;2.07;;
4051;SDS011;2040;50.924;11.604;2023-07-13T11:44:41;1.60;;;0.90;;
4051;SDS011;2040;50.924;11.604;2023-07-13T11:47:10;1.00;;;0.80;;
4051;SDS011;2040;50.924;11.604;2023-07-13T11:49:47;3.50;;;0.90;;
4051;SDS011;2040;50.924;11.604;2023-07-13T11:52:19;10.40;;;0.90;;
4051;SDS011;2040;50.924;11.604;2023-07-13T11:54:48;2.97;;;1.00;;
4051;SDS011;2040;50.924;11.604;2023-07-13T11:57:33;1.73;;;0.93;;
4051;SDS011;2040;50.924;11.604;2023-07-13T12:00:04;1.57;;;0.80;;
4051;SDS011;2040;50.924;11.604;2023-07-13T12:02:38;1.10;;;0.77;;
4051;SDS011;2040;50.924;11.604;2023-07-13T12:05:09;0.80;;;0.60;;
4051;SDS011;2040;50.924;11.604;2023-07-13T12:07:37;1.27;;;0.73;;
4051;SDS011;2040;50.924;11.604;2023-07-13T12:12:55;3.20;;;0.77;;
4051;SDS011;2040;50.924;11.604;2023-07-13T12:15:22;2.30;;;0.80;;
4051;SDS011;2040;50.924;11.604;2023-07-13T12:17:51;0.70;;;0.70;;
4051;SDS011;2040;50.924;11.604;2023-07-13T12:20:37;2.47;;;0.83;;
4051;SDS011;2040;50.924;11.604;2023-07-13T12:23:23;3.10;;;0.70;;
4051;SDS011;2040;50.924;11.604;2023-07-13T12:25:58;3.23;;;0.77;;
4051;SDS011;2040;50.924;11.604;2023-07-13T12:28:31;1.00;;;0.90;;
4051;SDS011;2040;50.924;11.604;2023-07-13T12:31:03;2.63;;;0.90;;
4051;SDS011;2040;50.924;11.604;2023-07-13T12:33:32;0.77;;;0.60;;
4051;SDS011;2040;50.924;11.604;2023-07-13T12:36:00;1.70;;;0.77;;
4051;SDS011;2040;50.924;11.604;2023-07-13T12:38:28;2.50;;;0.90;;
4051;SDS011;2040;50.924;11.604;2023-07-13T12:40:55;6.13;;;1.17;;
4051;SDS011;2040;50.924;11.604;2023-07-13T12:43:21;5.63;;;1.00;;
4051;SDS011;2040;50.924;11.604;2023-07-13T12:45:55;4.00;;;0.90;;
4051;SDS011;2040;50.924;11.604;2023-07-13T12:48:22;4.23;;;1.70;;
4051;SDS011;2040;50.924;11.604;2023-07-13T12:50:49;1.97;;;0.80;;
4051;SDS011;2040;50.924;11.604;2023-07-13T12:53:19;5.40;;;1.17;;
4051;SDS011;2040;50.924;11.604;2023-07-13T12:58:25;1.80;;;1.00;;
4051;SDS011;2040;50.924;11.604;2023-07-13T13:00:54;1.00;;;0.83;;
4051;SDS011;2040;50.924;11.604;2023-07-13T13:06:02;2.50;;;1.00;;
4051;SDS011;2040;50.924;11.604;2023-07-13T13:08:33;3.63;;;1.10;;
4051;SDS011;2040;50.924;11.604;2023-07-13T13:11:03;2.60;;;0.90;;
4051;SDS011;2040;50.924;11.604;2023-07-13T13:13:29;1.63;;;0.80;;
4051;SDS011;2040;50.924;11.604;2023-07-13T13:15:55;1.40;;;0.80;;
4051;SDS011;2040;50.924;11.604;2023-07-13T13:18:23;3.20;;;0.70;;
4051;SDS011;2040;50.924;11.604;2023-07-13T13:20:51;1.83;;;1.00;;
4051;SDS011;2040;50.924;11.604;2023-07-13T13:23:23;1.90;;;0.90;;
4051;SDS011;2040;50.924;11.604;2023-07-13T13:25:50;1.20;;;0.90;;
4051;SDS011;2040;50.924;11.604;2023-07-13T13:28:17;1.00;;;0.87;;
4051;SDS011;2040;50.924;11.604;2023-07-13T13:30:45;1.73;;;0.80;;
4051;SDS011;2040;50.924;11.604;2023-07-13T13:33:15;2.57;;;1.00;;
4051;SDS011;2040;50.924;11.604;2023-07-13T13:35:42;3.47;;;0.97;;
4051;SDS011;2040;50.924;11.604;2023-07-13T13:38:10;2.20;;;0.80;;
4051;SDS011;2040;50.924;11.604;2023-07-13T13:40:38;1.43;;;1.00;;
4051;SDS011;2040;50.924;11.604;2023-07-13T13:43:35;1.13;;;0.80;;
4051;SDS011;2040;50.924;11.604;2023-07-13T13:46:25;1.30;;;0.90;;
4051;SDS011;2040;50.924;11.604;2023-07-13T13:49:13;5.10;;;0.80;;
4051;SDS011;2040;50.924;11.604;2023-07-13T13:51:43;1.63;;;0.90;;
4051;SDS011;2040;50.924;11.604;2023-07-13T13:54:10;2.43;;;1.10;;
4051;SDS011;2040;50.924;11.604;2023-07-13T13:56:43;5.03;;;0.93;;
4051;SDS011;2040;50.924;11.604;2023-07-13T13:59:11;0.97;;;0.73;;
4051;SDS011;2040;50.924;11.604;2023-07-13T14:01:43;1.60;;;1.00;;
4051;SDS011;2040;50.924;11.604;2023-07-13T14:04:13;1.63;;;1.17;;
4051;SDS011;2040;50.924;11.604;2023-07-13T14:06:45;7.00;;;1.03;;
4051;SDS011;2040;50.924;11.604;2023-07-13T14:09:20;0.80;;;0.60;;
4051;SDS011;2040;50.924;11.604;2023-07-13T14:11:59;2.53;;;1.00;;
4051;SDS011;2040;50.924;11.604;2023-07-13T14:14:25;6.40;;;0.87;;
4051;SDS011;2040;50.924;11.604;2023-07-13T14:16:55;0.97;;;0.60;;
4051;SDS011;2040;50.924;11.604;2023-07-13T14:19:25;1.70;;;0.80;;
4051;SDS011;2040;50.924;11.604;2023-07-13T14:22:17;3.33;;;1.10;;
4051;SDS011;2040;50.924;11.604;2023-07-13T14:24:46;2.13;;;0.60;;
4051;SDS011;2040;50.924;11.604;2023-07-13T14:27:12;1.57;;;0.93;;
4051;SDS011;2040;50.924;11.604;2023-07-13T14:29:43;1.57;;;1.00;;
4051;SDS011;2040;50.924;11.604;2023-07-13T14:32:13;2.30;;;1.37;;
4051;SDS011;2040;50.924;11.604;2023-07-13T14:34:39;1.87;;;0.87;;
4051;SDS011;2040;50.924;11.604;2023-07-13T14:37:14;4.23;;;0.90;;
4051;SDS011;2040;50.924;11.604;2023-07-13T14:39:44;1.73;;;0.90;;
4051;SDS011;2040;50.924;11.604;2023-07-13T14:42:14;0.97;;;0.87;;
4051;SDS011;2040;50.924;11.604;2023-07-13T14:44:39;0.90;;;0.70;;
4051;SDS011;2040;50.924;11.604;2023-07-13T14:47:06;1.40;;;0.80;;
4051;SDS011;2040;50.924;11.604;2023-07-13T14:49:36;2.07;;;0.90;;
4051;SDS011;2040;50.924;11.604;2023-07-13T14:52:18;1.53;;;0.60;;
4051;SDS011;2040;50.924;11.604;2023-07-13T14:54:46;1.93;;;0.80;;
4051;SDS011;2040;50.924;11.604;2023-07-13T14:57:23;1.53;;;0.93;;
4051;SDS011;2040;50.924;11.604;2023-07-13T14:59:49;2.80;;;0.80;;
4051;SDS011;2040;50.924;11.604;2023-07-13T15:02:17;1.03;;;0.70;;
4051;SDS011;2040;50.924;11.604;2023-07-13T15:04:51;4.83;;;0.80;;
4051;SDS011;2040;50.924;11.604;2023-07-13T15:07:16;1.37;;;0.70;;
4051;SDS011;2040;50.924;11.604;2023-07-13T15:09:47;2.30;;;0.90;;
4051;SDS011;2040;50.924;11.604;2023-07-13T15:12:16;2.77;;;0.90;;
4051;SDS011;2040;50.924;11.604;2023-07-13T15:14:42;6.00;;;0.70;;
4051;SDS011;2040;50.924;11.604;2023-07-13T15:17:21;2.07;;;1.10;;
4051;SDS011;2040;50.924;11.604;2023-07-13T15:19:59;2.40;;;0.77;;
4051;SDS011;2040;50.924;11.604;2023-07-13T15:22:34;1.20;;;0.60;;
4051;SDS011;2040;50.924;11.604;2023-07-13T15:24:59;1.70;;;0.80;;
4051;SDS011;2040;50.924;11.604;2023-07-13T15:27:25;0.80;;;0.70;;
4051;SDS011;2040;50.924;11.604;2023-07-13T15:29:52;1.30;;;0.70;;
4051;SDS011;2040;50.924;11.604;2023-07-13T15:32:18;3.87;;;0.73;;
4051;SDS011;2040;50.924;11.604;2023-07-13T15:34:44;1.60;;;0.90;;
4051;SDS011;2040;50.924;11.604;2023-07-13T15:37:14;1.53;;;1.43;;
4051;SDS011;2040;50.924;11.604;2023-07-13T15:39:41;2.10;;;0.90;;
4051;SDS011;2040;50.924;11.604;2023-07-13T15:42:12;1.53;;;0.80;;
4051;SDS011;2040;50.924;11.604;2023-07-13T15:44:40;1.07;;;0.80;;
4051;SDS011;2040;50.924;11.604;2023-07-13T15:47:09;3.80;;;0.87;;
4051;SDS011;2040;50.924;11.604;2023-07-13T15:49:36;1.83;;;1.07;;
4051;SDS011;2040;50.924;11.604;2023-07-13T15:52:04;1.20;;;1.00;;